Time;durP1;ratioP1;P1;durP2;ratioP2;P2;SDS_P1;SDS_P2;PMS_P1;PMS_P2;Temp;Humidity;BMP_temperature;BMP_pressure;BME280_temperature;BME280_humidity;BME280_pressure;Samples;Min_cycle;Max_cycle;Signal;HPM_P1;HPM_P2
2022/08/30 00:08:41;;;;;;;6.97;2.75;;;;;;;22.18;69.38;100676.22;18433081;32;20092;-55
2022/08/30 00:18:48;;;;;;;7.60;3.65;;;;;;;22.22;69.63;100676.94;18433008;32;20089;-55
2022/08/30 00:28:59;;;;;;;7.60;3.40;;;;;;;22.17;70.20;100680.69;18432483;32;20069;-55
2022/08/30 00:39:06;;;;;;;8.20;3.58;;;;;;;22.25;69.66;100683.00;18432077;32;20132;-55
2022/08/30 00:49:16;;;;;;;8.13;3.30;;;;;;;22.34;69.35;100673.72;18431344;32;20116;-54
2022/08/30 00:59:25;;;;;;;7.28;3.37;;;;;;;22.31;70.33;100680.06;18431062;32;20194;-55
2022/08/30 01:09:35;;;;;;;8.45;3.65;;;;;;;22.39;69.91;100676.19;18430803;32;20104;-55
2022/08/30 01:19:45;;;;;;;8.13;3.45;;;;;;;22.44;69.44;100671.47;18430228;32;20105;-55
2022/08/30 01:29:56;;;;;;;9.73;4.30;;;;;;;22.30;70.04;100665.03;18429847;32;20119;-55
2022/08/30 01:40:03;;;;;;;8.73;3.90;;;;;;;22.48;69.21;100667.75;18428781;32;20100;-55
2022/08/30 01:50:14;;;;;;;8.90;3.95;;;;;;;22.31;69.82;100663.22;18428758;32;20096;-55
2022/08/30 02:00:22;;;;;;;9.67;4.40;;;;;;;22.23;69.42;100660.94;18431290;32;20111;-55
2022/08/30 02:10:31;;;;;;;8.13;3.78;;;;;;;21.97;69.50;100659.50;18436428;32;20092;-55
2022/08/30 02:20:40;;;;;;;9.00;4.15;;;;;;;21.66;70.62;100656.41;18436174;32;20123;-54
2022/08/30 02:30:49;;;;;;;8.13;3.50;;;;;;;21.67;69.91;100644.88;18435624;32;20101;-55
2022/08/30 02:40:57;;;;;;;7.35;3.40;;;;;;;21.64;69.45;100655.62;18435109;32;20120;-55
2022/08/30 02:51:09;;;;;;;10.77;3.50;;;;;;;21.52;69.36;100645.50;18435248;32;20115;-55
2022/08/30 03:01:18;;;;;;;8.35;3.80;;;;;;;21.42;69.52;100656.53;18434776;32;20101;-55
2022/08/30 03:11:28;;;;;;;9.02;3.87;;;;;;;21.19;70.01;100653.09;18434271;32;20100;-55
2022/08/30 03:21:37;;;;;;;7.70;3.35;;;;;;;21.21;69.36;100661.84;18434368;32;20128;-55
2022/08/30 03:31:46;;;;;;;8.80;3.80;;;;;;;21.26;68.94;100660.81;18433767;32;20108;-55
2022/08/30 03:41:59;;;;;;;7.45;3.10;;;;;;;21.10;69.05;100672.06;18433928;32;20089;-55
2022/08/30 03:52:10;;;;;;;7.25;3.03;;;;;;;21.10;68.51;100680.03;18433961;32;20089;-55
2022/08/30 04:02:18;;;;;;;11.20;3.67;;;;;;;20.87;69.25;100684.53;18433532;32;20115;-55
2022/08/30 04:12:28;;;;;;;13.25;4.40;;;;;;;20.70;68.94;100692.25;18418697;32;20170;-55
2022/08/30 04:22:37;;;;;;;8.47;3.63;;;;;;;20.58;69.43;100690.94;18431536;32;20096;-55
2022/08/30 04:32:47;;;;;;;10.32;3.72;;;;;;;20.57;69.76;100711.28;18432267;32;20093;-55
2022/08/30 04:42:56;;;;;;;10.70;4.05;;;;;;;20.70;69.82;100719.63;18431989;32;20119;-55
2022/08/30 04:53:05;;;;;;;8.63;3.70;;;;;;;20.76;69.83;100740.62;18431759;32;20120;-54
2022/08/30 05:03:11;;;;;;;8.50;3.62;;;;;;;20.89;69.62;100742.81;18431229;32;20116;-54
2022/08/30 05:13:21;;;;;;;9.60;4.20;;;;;;;21.16;69.47;100764.72;18430432;32;20089;-55
2022/08/30 05:23:41;;;;;;;10.27;4.22;;;;;;;21.25;71.02;100771.44;18429931;32;20084;-54
2022/08/30 05:33:52;;;;;;;11.40;4.12;;;;;;;21.67;70.61;100779.44;18425392;32;20123;-55
2022/08/30 05:44:00;;;;;;;8.83;4.37;;;;;;;22.35;69.18;100772.97;18435247;32;20119;-55
2022/08/30 05:54:10;;;;;;;9.00;4.10;;;;;;;23.02;68.22;100769.91;18436488;32;20187;-55
2022/08/30 06:04:18;;;;;;;11.00;5.00;;;;;;;22.16;72.77;100789.75;18421241;32;20096;-55
2022/08/30 06:14:28;;;;;;;9.15;3.83;;;;;;;22.98;70.71;100785.16;18433730;32;20100;-55
2022/08/30 06:24:36;;;;;;;9.37;3.87;;;;;;;25.60;61.66;100781.06;18432507;32;20120;-55
2022/08/30 06:35:02;;;;;;;10.88;3.60;;;;;;;26.37;58.59;100784.53;18435251;32;20127;-55
2022/08/30 06:45:09;;;;;;;10.57;4.20;;;;;;;26.49;58.07;100783.72;18433332;32;20097;-55
2022/08/30 06:55:21;;;;;;;8.60;3.60;;;;;;;26.49;58.24;100781.06;18435659;32;20128;-55
2022/08/30 07:05:28;;;;;;;8.43;4.30;;;;;;;27.35;56.02;100787.13;18434631;32;20101;-54
2022/08/30 07:47:42;;;;;;;9.13;3.62;;;;;;;28.72;51.16;100793.84;18429458;32;20108;-56
2022/08/30 07:57:46;;;;;;;9.30;4.07;;;;;;;28.74;51.48;100799.94;18431620;32;20112;-57
2022/08/30 08:07:50;;;;;;;9.77;3.97;;;;;;;28.77;51.59;100790.81;18418811;32;20116;-57
2022/08/30 08:17:54;;;;;;;9.55;3.95;;;;;;;28.72;50.75;100798.34;18433727;32;20385;-57
2022/08/30 08:27:58;;;;;;;8.00;3.50;;;;;;;28.91;47.66;100779.94;18432587;32;20484;-56
2022/08/30 08:38:02;;;;;;;8.48;3.80;;;;;;;28.92;49.31;100778.12;18404527;32;20096;-57
2022/08/30 08:48:09;;;;;;;7.60;3.40;;;;;;;28.83;49.09;100781.47;18432332;32;20109;-56
2022/08/30 08:58:21;;;;;;;7.17;3.43;;;;;;;28.69;44.28;100777.09;18430862;32;20210;-57
2022/08/30 09:08:26;;;;;;;6.05;3.15;;;;;;;29.13;40.38;100772.09;18423819;32;20129;-56
2022/08/30 09:18:44;;;;;;;6.85;3.00;;;;;;;29.66;39.97;100771.69;18429536;32;20101;-56
2022/08/30 09:28:54;;;;;;;8.23;3.40;;;;;;;29.80;41.02;100767.09;18429663;32;20107;-56
2022/08/30 09:39:00;;;;;;;6.50;2.85;;;;;;;29.10;41.79;100753.53;18432080;32;20093;-56
2022/08/30 09:49:29;;;;;;;8.88;3.10;;;;;;;29.08;42.19;100742.88;18492947;32;20444;-56
2022/08/30 09:59:49;;;;;;;6.68;3.00;;;;;;;29.63;40.41;100732.44;18478102;32;20097;-56
2022/08/30 10:10:00;;;;;;;6.57;3.20;;;;;;;29.41;40.43;100718.94;18491763;32;20368;-56
2022/08/30 10:20:16;;;;;;;7.15;3.40;;;;;;;30.58;38.63;100711.50;18493818;32;20107;-56
2022/08/30 10:30:21;;;;;;;8.13;3.20;;;;;;;30.49;38.42;100709.56;18476189;32;20141;-57
2022/08/30 10:50:54;;;;;;;6.75;3.20;;;;;;;30.80;37.22;100687.34;18435218;32;20154;-57
2022/08/30 11:01:18;;;;;;;7.75;3.67;;;;;;;32.20;34.36;100676.22;18478079;32;20097;-57
2022/08/30 11:11:37;;;;;;;7.37;3.55;;;;;;;30.78;37.21;100668.59;18456495;32;20111;-56
2022/08/30 11:21:43;;;;;;;7.82;3.67;;;;;;;28.92;40.03;100663.44;18419604;32;20096;-56
2022/08/30 11:31:48;;;;;;;9.40;3.55;;;;;;;29.95;42.52;100663.59;18464652;32;20108;-56
2022/08/30 11:42:10;;;;;;;7.03;3.53;;;;;;;30.02;41.36;100651.38;18483964;32;20101;-56
2022/08/30 11:52:29;;;;;;;8.23;3.55;;;;;;;30.29;40.66;100644.75;18419026;32;20115;-56
2022/08/30 12:02:48;;;;;;;7.60;3.60;;;;;;;30.53;39.90;100635.59;18487304;32;20088;-56
2022/08/30 12:12:55;;;;;;;9.90;3.30;;;;;;;31.04;41.76;100632.34;18464455;32;20473;-56
2022/08/30 12:23:17;;;;;;;8.43;3.33;;;;;;;31.16;40.33;100612.44;18417483;32;20092;-57
2022/08/30 12:33:31;;;;;;;7.57;3.60;;;;;;;30.92;41.44;100601.91;18417408;32;20112;-56
2022/08/30 12:43:49;;;;;;;5.87;3.20;;;;;;;31.17;39.62;100599.78;18464617;32;20116;-56
2022/08/30 12:53:55;;;;;;;7.03;3.10;;;;;;;31.51;36.69;100578.81;18420701;32;20443;-57
2022/08/30 13:04:03;;;;;;;7.03;3.05;;;;;;;31.49;36.67;100559.22;18480352;32;20171;-57
2022/08/30 13:14:31;;;;;;;7.35;3.25;;;;;;;31.87;35.21;100548.72;18494510;32;20102;-56
2022/08/30 13:24:34;;;;;;;6.57;3.17;;;;;;;32.39;35.82;100539.53;18488806;32;20085;-57
2022/08/30 13:34:39;;;;;;;7.65;3.12;;;;;;;32.61;35.42;100534.81;18489828;32;20101;-56
2022/08/30 13:44:42;;;;;;;6.72;3.05;;;;;;;32.73;35.90;100533.69;18433396;32;20128;-56
2022/08/30 13:54:47;;;;;;;6.32;3.22;;;;;;;32.77;34.86;100518.87;18416719;32;20121;-56
2022/08/30 14:04:52;;;;;;;6.60;3.00;;;;;;;32.31;36.00;100517.75;18436503;32;20090;-56
2022/08/30 14:14:56;;;;;;;6.57;3.05;;;;;;;31.72;36.93;100509.59;18436575;32;20093;-56
2022/08/30 14:25:01;;;;;;;6.25;3.20;;;;;;;31.36;37.17;100502.00;18435902;32;20107;-56
2022/08/30 14:35:07;;;;;;;6.47;3.30;;;;;;;30.70;37.08;100496.84;18421149;32;20097;-56
2022/08/30 14:45:13;;;;;;;6.82;2.83;;;;;;;30.91;37.97;100485.19;18435505;32;20101;-56
2022/08/30 14:55:18;;;;;;;5.85;3.10;;;;;;;31.00;37.90;100480.81;18435170;32;20088;-56
2022/08/30 15:05:21;;;;;;;6.93;2.90;;;;;;;30.59;39.17;100486.09;18434007;32;20107;-56
2022/08/30 15:15:27;;;;;;;6.57;2.95;;;;;;;30.55;39.83;100480.13;18434688;32;20492;-56
2022/08/30 15:25:30;;;;;;;6.05;2.78;;;;;;;30.30;39.46;100474.16;18434309;32;20143;-56
2022/08/30 15:35:35;;;;;;;6.70;3.00;;;;;;;30.02;41.07;100465.69;18434294;32;20101;-56
2022/08/30 15:45:38;;;;;;;6.15;2.87;;;;;;;29.79;41.82;100453.31;18434660;32;20360;-55
2022/08/30 15:55:43;;;;;;;5.82;2.78;;;;;;;29.94;40.97;100453.87;18433594;32;20093;-56
2022/08/30 16:05:47;;;;;;;5.47;2.60;;;;;;;30.01;39.76;100458.59;18434258;32;20499;-56
2022/08/30 16:15:53;;;;;;;5.32;2.50;;;;;;;30.15;37.81;100453.91;18431528;32;20372;-55
2022/08/30 16:25:56;;;;;;;5.50;2.75;;;;;;;30.34;36.90;100450.50;18407344;32;20097;-56
2022/08/30 16:36:09;;;;;;;;;;;;;;;30.27;37.21;100447.50;18381793;32;20118;-56
2022/08/30 16:46:15;;;;;;;5.45;2.60;;;;;;;30.35;36.41;100444.13;18374570;32;19985;-55
2022/08/30 16:56:23;;;;;;;7.30;3.22;;;;;;;29.90;36.56;100445.19;18429461;32;20346;-56
2022/08/30 17:06:28;;;;;;;8.35;2.95;;;;;;;29.67;38.72;100449.78;18424816;32;20080;-56
2022/08/30 17:16:34;;;;;;;6.55;3.00;;;;;;;29.17;41.26;100449.25;18458862;32;20116;-56
2022/08/30 17:26:39;;;;;;;7.35;3.17;;;;;;;28.86;40.69;100473.19;18415202;32;20089;-56
2022/08/30 17:36:43;;;;;;;8.55;3.08;;;;;;;28.49;43.71;100474.16;18409052;32;20638;-55
2022/08/30 17:46:48;;;;;;;11.23;3.12;;;;;;;28.03;46.35;100480.31;18448247;32;20156;-56
2022/08/30 17:56:52;;;;;;;9.75;3.10;;;;;;;27.55;48.15;100490.06;18436366;32;20184;-55
2022/08/30 18:06:56;;;;;;;10.60;3.37;;;;;;;27.05;48.46;100506.09;18429768;32;20230;-55
2022/08/30 18:17:01;;;;;;;9.43;3.45;;;;;;;26.59;50.26;100516.31;18433205;32;20694;-55
2022/08/30 18:27:04;;;;;;;8.13;3.70;;;;;;;26.18;50.42;100528.81;18446001;32;20115;-55
2022/08/30 18:37:09;;;;;;;8.57;3.33;;;;;;;25.69;50.82;100530.19;18445743;32;20101;-55
2022/08/30 18:47:14;;;;;;;9.18;3.28;;;;;;;25.17;52.80;100548.53;18416151;32;20493;-55
2022/08/30 18:57:20;;;;;;;7.35;3.22;;;;;;;24.97;53.94;100563.97;18448875;32;20116;-55
2022/08/30 19:07:24;;;;;;;25.42;4.45;;;;;;;24.91;54.21;100556.31;18474804;32;20127;-55
2022/08/30 19:17:48;;;;;;;9.45;3.85;;;;;;;24.78;54.23;100559.72;18484962;32;20425;-55
2022/08/30 19:27:52;;;;;;;8.63;3.87;;;;;;;24.44;55.44;100564.34;18476945;32;20416;-55
2022/08/30 19:37:57;;;;;;;8.63;3.40;;;;;;;24.31;56.00;100555.34;18417758;32;20097;-55
2022/08/30 19:48:00;;;;;;;7.60;3.75;;;;;;;23.98;56.96;100554.47;18386323;32;20654;-55
2022/08/30 19:58:05;;;;;;;8.55;3.50;;;;;;;23.67;58.06;100557.03;18389867;32;20190;-56
2022/08/30 20:08:08;;;;;;;13.23;5.45;;;;;;;23.45;58.42;100562.66;18432536;32;20088;-55
2022/08/30 20:18:13;;;;;;;10.27;4.37;;;;;;;23.31;57.65;100566.06;18432020;32;20087;-55
2022/08/30 20:28:17;;;;;;;8.32;3.87;;;;;;;23.16;58.39;100566.88;18417710;32;20183;-55
2022/08/30 20:38:22;;;;;;;8.15;3.50;;;;;;;22.96;58.85;100579.41;18446598;32;20145;-55
2022/08/30 20:48:27;;;;;;;9.43;3.70;;;;;;;22.70;59.60;100549.66;18458360;32;20089;-55
2022/08/30 20:58:32;;;;;;;8.63;3.95;;;;;;;22.50;60.41;100551.53;18453858;32;20130;-55
2022/08/30 21:08:35;;;;;;;8.80;3.90;;;;;;;22.45;60.64;100551.72;18433402;32;20130;-55
2022/08/30 21:18:40;;;;;;;7.93;3.67;;;;;;;22.29;61.37;100556.94;18433229;32;20146;-55
2022/08/30 21:28:43;;;;;;;9.70;3.60;;;;;;;22.33;61.71;100556.78;18412664;32;20089;-55
2022/08/30 21:38:47;;;;;;;9.10;3.75;;;;;;;22.30;62.10;100571.97;18400181;32;20112;-55
2022/08/30 21:48:51;;;;;;;7.90;3.60;;;;;;;22.23;62.36;100575.84;18457031;32;20148;-55
2022/08/30 21:58:56;;;;;;;8.18;3.58;;;;;;;21.99;62.19;100584.06;18446521;32;20179;-56
2022/08/30 22:09:01;;;;;;;10.77;4.50;;;;;;;21.75;63.09;100594.91;18456771;32;20101;-56
2022/08/30 22:19:05;;;;;;;10.55;3.92;;;;;;;21.58;63.54;100608.94;18432585;32;20093;-55
2022/08/30 22:29:09;;;;;;;8.27;4.45;;;;;;;21.55;64.65;100598.44;18432014;32;157015;-56
2022/08/30 22:39:14;;;;;;;10.02;3.90;;;;;;;21.74;65.27;100593.19;18436566;32;20161;-56
2022/08/30 22:49:17;;;;;;;8.70;3.97;;;;;;;22.06;64.02;100582.00;18432315;32;20709;-55
2022/08/30 22:59:22;;;;;;;11.57;3.80;;;;;;;20.05;71.06;100593.13;18406238;32;20125;-56
2022/08/30 23:09:34;;;;;;;9.93;3.80;;;;;;;21.34;66.01;100557.78;18434766;32;20089;-55
2022/08/30 23:19:39;;;;;;;8.60;3.58;;;;;;;21.69;64.54;100559.81;18434637;32;20105;-55
